Cordova, AK

9:07 AM AKDT on April 01, 2015 (GMT -0800)
APRSWXNET | | Change Station
CLOSE
Current Station
Personal Weather Station
Location: Cordova, AK
Elevation: 15 ft
Nearby Weather Stations

Elev 15 ft 60.54 °N, 145.77 °W | Updated 29 minutes ago

Overcast
Overcast
38 °F
Feels Like 38 °F
N
3
Wind Variable Wind from NNE
Gusts 21.0 mph

Today
High -- | Low -- °F
--% Chance of Precip.
Yesterday
High -- | Low -- °F
Precip. -- in
7:07 AM 8:27 PM
Waxing Gibbous, 93% visible
Pressure 29.86 in
Visibility 7.0 miles
Clouds Scattered Clouds 1100 ft
Mostly Cloudy 1600 ft
Overcast 3000 ft
Windchill 38 °F
Dew Point 33 °F
Humidity 83%
Rainfall in
Snow Depth Not available.
UV 0 out of 12
Pollen Not available.
Air Quality Not available.
Flu Activity Not available.
METAR PACV 011653Z 13005KT 7SM -RA SCT011 BKN016 OVC030 03/01 A2986 RMK AO2 SLP111 P0005 T00280011

More Conditions Fewer Conditions

Pressure 29.86 in
Visibility 7.0 miles
Clouds Scattered Clouds 1100 ft
Mostly Cloudy 1600 ft
Overcast 3000 ft
Windchill 38 °F
Dew Point 33 °F
Humidity 83%
Rainfall in
Snow Depth Not available.
UV 0 out of 12
Pollen Not available.
Air Quality Not available.
Flu Activity Not available.
METAR PACV 011653Z 13005KT 7SM -RA SCT011 BKN016 OVC030 03/01 A2986 RMK AO2 SLP111 P0005 T00280011

More Conditions Fewer Conditions

10-Day Weather Forecast

Almanac

Astronomy

Apr. 01, 2015 Rise Set
Actual Time
Civil Twilight
Nautical Twilight
Astronomical Twilight
Moon
Length of Visible Light
Length of Day
Tomorrow will be .
, % of the Moon is Illuminated

Today's Extremes

State Highs State Lows

Community

WunderPhotos

Upload Photos

1,810,011 photos uploaded!

WunderBlogs® & News

Nearby

Air Quality

  Air Quality AQ Index Pollutant
Not available.

Snow Depth

Station Depth Elevation

Earthquake Activity

City Distance Mag. Time & Date
Minimum magnitude displayed is 2.5.

Coastal Water Temperatures

Place Temperature

Stations

Nearby Weather Stations

Station Location Temp. Windchill Dew Point Humidity Wind Precip. Elev Updated Type